Terminal Aerodrome Forecast
Issued by NWS

Home | Current Version | Previous Version | Text Only | Print | Product List | Glossary On
Versions: 1 2 3 4 5 6 7 8 9 10 11 12 13 14 15 16 17 18 19 20 21 22
000
FTUS45 KBOU 220536
TAFAPA
TAF
KAPA 220536Z 2206/2306 07005KT P6SM -RA SCT050 BKN090
     FM220700 14007KT P6SM VCSH SCT110 BKN150 OVC200
     FM221000 20008KT P6SM SCT110 BKN170
     FM221800 04006KT P6SM SCT080 BKN120
     FM222300 10007KT P6SM SCT120 BKN200
     FM230300 19010KT P6SM FEW120 SCT200=

USA.gov is the U.S. government's official web portal to all federal, state and local government web resources and services.